Decoded Metar for LFPB (PARIS LE BOURGET in FRANCE) (IATA:LBG) | Meteo·Mobile Aviation Weather
aviador You're here:

LFPB Decoded Metar

PARIS LE BOURGET in FRANCE
Report Time2019-07-21 16:30:00
UTC Time2019-07-21 16:52:37
Flight Rules vfr VFR
Wind330° at 04 kt
W.Decomp.*RWY 03: 2.1 kt HW 3.4 kt LCW
RWY 27: 1.9 kt HW 3.5 kt RCW
RWY 25: 0.6 kt HW 4.0 kt RCW
Visibility9999 m
Phenomena:N/A
Clouds:N/A
Expected CloudBase > 6,000 ft AGL from Temp-Dew spread
CeilingNone
Temp27°C (ISA +12)
Dew Point12°C (39% RH)
Heat Index26.8°C
AAT26.1°C
QNH1022 hPa
Density Alt1,535 ft
Elevation213 ft
Report Wrong Elevation
Raw Report
LFPB 211630Z AUTO 33004KT 290V010 CAVOK 27/12 Q1022 NOSIG=

Extra information for LFPB:More info

Metar Taf Metar & Taf Last 4 Metars F.Rules Stats Wind Profile Meteogram Temp Stats Airport Information Weather charts Add Link Nearby VenuesMetar ALERT Operation Metar Decoded Social comments